sensor_id;sensor_type;location;lat;lon;timestamp;P1;durP1;ratioP1;P2;durP2;ratioP2
11986;SDS011;6053;51.382;6.768;2022-09-29T00:01:14;1.20;;;1.20;;
11986;SDS011;6053;51.382;6.768;2022-09-29T00:03:42;1.50;;;1.27;;
11986;SDS011;6053;51.382;6.768;2022-09-29T00:06:12;1.30;;;1.30;;
11986;SDS011;6053;51.382;6.768;2022-09-29T00:08:43;1.30;;;1.30;;
11986;SDS011;6053;51.382;6.768;2022-09-29T00:11:14;1.35;;;1.35;;
11986;SDS011;6053;51.382;6.768;2022-09-29T00:13:44;1.20;;;1.20;;
11986;SDS011;6053;51.382;6.768;2022-09-29T00:16:13;1.50;;;1.50;;
11986;SDS011;6053;51.382;6.768;2022-09-29T00:18:42;1.45;;;1.35;;
11986;SDS011;6053;51.382;6.768;2022-09-29T00:21:11;1.50;;;1.48;;
11986;SDS011;6053;51.382;6.768;2022-09-29T00:23:42;1.40;;;1.40;;
11986;SDS011;6053;51.382;6.768;2022-09-29T00:26:11;1.10;;;1.10;;
11986;SDS011;6053;51.382;6.768;2022-09-29T00:28:45;1.20;;;1.20;;
11986;SDS011;6053;51.382;6.768;2022-09-29T00:31:18;1.30;;;1.30;;
11986;SDS011;6053;51.382;6.768;2022-09-29T00:33:48;1.20;;;1.20;;
11986;SDS011;6053;51.382;6.768;2022-09-29T00:36:16;1.27;;;1.27;;
11986;SDS011;6053;51.382;6.768;2022-09-29T00:38:47;1.95;;;1.40;;
11986;SDS011;6053;51.382;6.768;2022-09-29T00:41:20;1.17;;;1.17;;
11986;SDS011;6053;51.382;6.768;2022-09-29T00:43:54;1.10;;;1.10;;
11986;SDS011;6053;51.382;6.768;2022-09-29T00:46:27;1.30;;;1.30;;
11986;SDS011;6053;51.382;6.768;2022-09-29T00:49:08;1.20;;;1.20;;
11986;SDS011;6053;51.382;6.768;2022-09-29T00:51:46;1.20;;;1.20;;
11986;SDS011;6053;51.382;6.768;2022-09-29T00:54:17;1.10;;;1.10;;
11986;SDS011;6053;51.382;6.768;2022-09-29T00:56:48;1.35;;;1.35;;
11986;SDS011;6053;51.382;6.768;2022-09-29T00:59:18;1.23;;;1.23;;
11986;SDS011;6053;51.382;6.768;2022-09-29T01:01:53;1.20;;;1.20;;
11986;SDS011;6053;51.382;6.768;2022-09-29T01:04:21;1.30;;;1.30;;
11986;SDS011;6053;51.382;6.768;2022-09-29T01:06:52;1.50;;;1.33;;
11986;SDS011;6053;51.382;6.768;2022-09-29T01:09:24;1.20;;;1.20;;
11986;SDS011;6053;51.382;6.768;2022-09-29T01:11:58;1.20;;;1.20;;
11986;SDS011;6053;51.382;6.768;2022-09-29T01:14:28;1.05;;;1.05;;
11986;SDS011;6053;51.382;6.768;2022-09-29T01:16:58;1.10;;;1.10;;
11986;SDS011;6053;51.382;6.768;2022-09-29T01:19:28;1.50;;;1.40;;
11986;SDS011;6053;51.382;6.768;2022-09-29T01:22:09;1.40;;;1.40;;
11986;SDS011;6053;51.382;6.768;2022-09-29T01:24:57;1.10;;;1.10;;
11986;SDS011;6053;51.382;6.768;2022-09-29T01:27:46;1.27;;;1.27;;
11986;SDS011;6053;51.382;6.768;2022-09-29T01:30:45;1.20;;;1.20;;
11986;SDS011;6053;51.382;6.768;2022-09-29T01:33:37;1.33;;;1.33;;
11986;SDS011;6053;51.382;6.768;2022-09-29T01:36:12;1.10;;;1.10;;
11986;SDS011;6053;51.382;6.768;2022-09-29T01:38:53;1.30;;;1.30;;
11986;SDS011;6053;51.382;6.768;2022-09-29T01:41:30;1.23;;;1.23;;
11986;SDS011;6053;51.382;6.768;2022-09-29T01:44:08;1.42;;;1.42;;
11986;SDS011;6053;51.382;6.768;2022-09-29T01:46:47;1.77;;;1.67;;
11986;SDS011;6053;51.382;6.768;2022-09-29T01:49:19;1.50;;;1.50;;
11986;SDS011;6053;51.382;6.768;2022-09-29T01:51:51;1.35;;;1.35;;
11986;SDS011;6053;51.382;6.768;2022-09-29T01:54:25;1.27;;;1.27;;
11986;SDS011;6053;51.382;6.768;2022-09-29T01:57:01;1.35;;;1.35;;
11986;SDS011;6053;51.382;6.768;2022-09-29T01:59:36;1.60;;;1.40;;
11986;SDS011;6053;51.382;6.768;2022-09-29T02:02:13;1.15;;;1.15;;
11986;SDS011;6053;51.382;6.768;2022-09-29T02:04:49;1.58;;;1.48;;
11986;SDS011;6053;51.382;6.768;2022-09-29T02:07:21;1.23;;;1.23;;
11986;SDS011;6053;51.382;6.768;2022-09-29T02:09:57;1.13;;;1.13;;
11986;SDS011;6053;51.382;6.768;2022-09-29T02:12:31;1.80;;;1.40;;
11986;SDS011;6053;51.382;6.768;2022-09-29T02:15:03;1.40;;;1.40;;
11986;SDS011;6053;51.382;6.768;2022-09-29T02:17:37;1.30;;;1.30;;
11986;SDS011;6053;51.382;6.768;2022-09-29T02:20:09;1.40;;;1.40;;
11986;SDS011;6053;51.382;6.768;2022-09-29T02:22:39;1.20;;;1.20;;
11986;SDS011;6053;51.382;6.768;2022-09-29T02:25:09;1.40;;;1.40;;
11986;SDS011;6053;51.382;6.768;2022-09-29T02:27:41;1.30;;;1.30;;
11986;SDS011;6053;51.382;6.768;2022-09-29T02:30:10;1.30;;;1.30;;
11986;SDS011;6053;51.382;6.768;2022-09-29T02:32:40;1.40;;;1.40;;
11986;SDS011;6053;51.382;6.768;2022-09-29T02:35:09;1.50;;;1.40;;
11986;SDS011;6053;51.382;6.768;2022-09-29T02:37:44;1.40;;;1.30;;
11986;SDS011;6053;51.382;6.768;2022-09-29T02:40:36;1.30;;;1.30;;
11986;SDS011;6053;51.382;6.768;2022-09-29T02:43:21;1.30;;;1.30;;
11986;SDS011;6053;51.382;6.768;2022-09-29T02:46:09;1.58;;;1.58;;
11986;SDS011;6053;51.382;6.768;2022-09-29T02:48:58;1.50;;;1.40;;
11986;SDS011;6053;51.382;6.768;2022-09-29T02:51:54;1.35;;;1.33;;
11986;SDS011;6053;51.382;6.768;2022-09-29T02:54:32;1.20;;;1.20;;
11986;SDS011;6053;51.382;6.768;2022-09-29T02:57:15;1.33;;;1.33;;
11986;SDS011;6053;51.382;6.768;2022-09-29T02:59:51;1.20;;;1.20;;
11986;SDS011;6053;51.382;6.768;2022-09-29T03:02:33;1.45;;;1.45;;
11986;SDS011;6053;51.382;6.768;2022-09-29T03:05:05;1.40;;;1.30;;
11986;SDS011;6053;51.382;6.768;2022-09-29T03:07:37;1.27;;;1.27;;
11986;SDS011;6053;51.382;6.768;2022-09-29T03:10:06;1.87;;;1.53;;
11986;SDS011;6053;51.382;6.768;2022-09-29T03:12:36;1.20;;;1.20;;
11986;SDS011;6053;51.382;6.768;2022-09-29T03:15:05;1.40;;;1.40;;
11986;SDS011;6053;51.382;6.768;2022-09-29T03:17:37;1.30;;;1.30;;
11986;SDS011;6053;51.382;6.768;2022-09-29T03:20:08;1.23;;;1.23;;
11986;SDS011;6053;51.382;6.768;2022-09-29T03:22:36;1.15;;;1.15;;
11986;SDS011;6053;51.382;6.768;2022-09-29T03:25:05;1.35;;;1.35;;
11986;SDS011;6053;51.382;6.768;2022-09-29T03:27:34;1.30;;;1.30;;
11986;SDS011;6053;51.382;6.768;2022-09-29T03:30:04;1.40;;;1.35;;
11986;SDS011;6053;51.382;6.768;2022-09-29T03:32:33;1.27;;;1.27;;
11986;SDS011;6053;51.382;6.768;2022-09-29T03:35:02;1.40;;;1.40;;
11986;SDS011;6053;51.382;6.768;2022-09-29T03:37:32;1.20;;;1.20;;
11986;SDS011;6053;51.382;6.768;2022-09-29T03:40:01;1.30;;;1.30;;
11986;SDS011;6053;51.382;6.768;2022-09-29T03:42:30;1.20;;;1.20;;
11986;SDS011;6053;51.382;6.768;2022-09-29T03:44:58;1.30;;;1.30;;
11986;SDS011;6053;51.382;6.768;2022-09-29T03:47:27;1.27;;;1.27;;
11986;SDS011;6053;51.382;6.768;2022-09-29T03:49:55;1.30;;;1.30;;
11986;SDS011;6053;51.382;6.768;2022-09-29T03:52:23;1.40;;;1.30;;
11986;SDS011;6053;51.382;6.768;2022-09-29T03:54:52;1.25;;;1.25;;
11986;SDS011;6053;51.382;6.768;2022-09-29T03:57:21;1.40;;;1.40;;
11986;SDS011;6053;51.382;6.768;2022-09-29T03:59:49;1.50;;;1.50;;
11986;SDS011;6053;51.382;6.768;2022-09-29T04:02:18;1.20;;;1.20;;
11986;SDS011;6053;51.382;6.768;2022-09-29T04:04:46;1.30;;;1.30;;
11986;SDS011;6053;51.382;6.768;2022-09-29T04:07:15;1.42;;;1.42;;
11986;SDS011;6053;51.382;6.768;2022-09-29T04:09:43;1.30;;;1.30;;
11986;SDS011;6053;51.382;6.768;2022-09-29T04:12:13;1.40;;;1.40;;
11986;SDS011;6053;51.382;6.768;2022-09-29T04:14:41;1.27;;;1.27;;
11986;SDS011;6053;51.382;6.768;2022-09-29T04:17:09;1.23;;;1.23;;
11986;SDS011;6053;51.382;6.768;2022-09-29T04:19:37;1.50;;;1.50;;
11986;SDS011;6053;51.382;6.768;2022-09-29T04:22:06;1.30;;;1.30;;
11986;SDS011;6053;51.382;6.768;2022-09-29T04:24:34;1.40;;;1.40;;
11986;SDS011;6053;51.382;6.768;2022-09-29T04:27:03;1.37;;;1.37;;
11986;SDS011;6053;51.382;6.768;2022-09-29T04:29:33;1.45;;;1.35;;
11986;SDS011;6053;51.382;6.768;2022-09-29T04:32:01;1.30;;;1.30;;
11986;SDS011;6053;51.382;6.768;2022-09-29T04:34:31;1.17;;;1.17;;
11986;SDS011;6053;51.382;6.768;2022-09-29T04:36:59;1.75;;;1.65;;
11986;SDS011;6053;51.382;6.768;2022-09-29T04:39:27;1.40;;;1.40;;
11986;SDS011;6053;51.382;6.768;2022-09-29T04:41:56;1.60;;;1.50;;
11986;SDS011;6053;51.382;6.768;2022-09-29T04:44:24;1.38;;;1.38;;
11986;SDS011;6053;51.382;6.768;2022-09-29T04:46:53;1.60;;;1.60;;
11986;SDS011;6053;51.382;6.768;2022-09-29T04:49:22;1.70;;;1.60;;
11986;SDS011;6053;51.382;6.768;2022-09-29T04:51:50;1.40;;;1.40;;
11986;SDS011;6053;51.382;6.768;2022-09-29T04:54:18;1.50;;;1.50;;
11986;SDS011;6053;51.382;6.768;2022-09-29T04:56:46;1.35;;;1.35;;
11986;SDS011;6053;51.382;6.768;2022-09-29T04:59:15;1.80;;;1.70;;
11986;SDS011;6053;51.382;6.768;2022-09-29T05:01:43;1.50;;;1.40;;
11986;SDS011;6053;51.382;6.768;2022-09-29T05:04:13;1.30;;;1.30;;
11986;SDS011;6053;51.382;6.768;2022-09-29T05:06:41;1.70;;;1.60;;
11986;SDS011;6053;51.382;6.768;2022-09-29T05:09:09;1.40;;;1.40;;
11986;SDS011;6053;51.382;6.768;2022-09-29T05:11:38;1.40;;;1.40;;
11986;SDS011;6053;51.382;6.768;2022-09-29T05:14:06;1.30;;;1.30;;
11986;SDS011;6053;51.382;6.768;2022-09-29T05:16:34;1.53;;;1.43;;
11986;SDS011;6053;51.382;6.768;2022-09-29T05:19:03;1.60;;;1.30;;
11986;SDS011;6053;51.382;6.768;2022-09-29T05:21:33;2.65;;;1.50;;
11986;SDS011;6053;51.382;6.768;2022-09-29T05:24:01;1.40;;;1.40;;
11986;SDS011;6053;51.382;6.768;2022-09-29T05:26:29;1.45;;;1.45;;
11986;SDS011;6053;51.382;6.768;2022-09-29T05:28:57;1.60;;;1.60;;
11986;SDS011;6053;51.382;6.768;2022-09-29T05:31:25;1.35;;;1.35;;
11986;SDS011;6053;51.382;6.768;2022-09-29T05:33:54;1.33;;;1.33;;
11986;SDS011;6053;51.382;6.768;2022-09-29T05:36:22;1.30;;;1.30;;
11986;SDS011;6053;51.382;6.768;2022-09-29T05:38:52;1.50;;;1.50;;
11986;SDS011;6053;51.382;6.768;2022-09-29T05:41:21;1.30;;;1.30;;
11986;SDS011;6053;51.382;6.768;2022-09-29T05:43:50;1.42;;;1.42;;
11986;SDS011;6053;51.382;6.768;2022-09-29T05:46:19;1.45;;;1.45;;
11986;SDS011;6053;51.382;6.768;2022-09-29T05:48:49;1.30;;;1.30;;
11986;SDS011;6053;51.382;6.768;2022-09-29T05:51:18;1.42;;;1.42;;
11986;SDS011;6053;51.382;6.768;2022-09-29T05:53:49;1.20;;;1.20;;
11986;SDS011;6053;51.382;6.768;2022-09-29T05:56:19;1.27;;;1.27;;
11986;SDS011;6053;51.382;6.768;2022-09-29T05:58:51;1.40;;;1.40;;
11986;SDS011;6053;51.382;6.768;2022-09-29T06:01:20;1.30;;;1.30;;
11986;SDS011;6053;51.382;6.768;2022-09-29T06:03:52;1.50;;;1.48;;
11986;SDS011;6053;51.382;6.768;2022-09-29T06:06:21;2.03;;;1.92;;
11986;SDS011;6053;51.382;6.768;2022-09-29T06:08:51;2.28;;;2.13;;
11986;SDS011;6053;51.382;6.768;2022-09-29T06:11:22;1.60;;;1.50;;
11986;SDS011;6053;51.382;6.768;2022-09-29T06:13:52;1.90;;;1.80;;
11986;SDS011;6053;51.382;6.768;2022-09-29T06:16:22;3.15;;;2.03;;
11986;SDS011;6053;51.382;6.768;2022-09-29T06:18:52;2.05;;;1.95;;
11986;SDS011;6053;51.382;6.768;2022-09-29T06:21:22;2.05;;;1.92;;
11986;SDS011;6053;51.382;6.768;2022-09-29T06:23:52;2.40;;;2.20;;
11986;SDS011;6053;51.382;6.768;2022-09-29T06:26:23;2.17;;;2.08;;
11986;SDS011;6053;51.382;6.768;2022-09-29T06:28:53;2.88;;;2.38;;
11986;SDS011;6053;51.382;6.768;2022-09-29T06:31:24;2.05;;;1.95;;
11986;SDS011;6053;51.382;6.768;2022-09-29T06:33:55;2.17;;;2.08;;
11986;SDS011;6053;51.382;6.768;2022-09-29T06:36:25;1.90;;;1.80;;
11986;SDS011;6053;51.382;6.768;2022-09-29T06:39:15;2.60;;;2.40;;
11986;SDS011;6053;51.382;6.768;2022-09-29T06:41:45;2.75;;;2.55;;
11986;SDS011;6053;51.382;6.768;2022-09-29T06:44:18;3.15;;;2.60;;
11986;SDS011;6053;51.382;6.768;2022-09-29T06:46:49;1.40;;;1.40;;
11986;SDS011;6053;51.382;6.768;2022-09-29T06:49:18;2.53;;;2.42;;
11986;SDS011;6053;51.382;6.768;2022-09-29T06:51:47;1.70;;;1.60;;
11986;SDS011;6053;51.382;6.768;2022-09-29T06:54:17;2.93;;;2.30;;
11986;SDS011;6053;51.382;6.768;2022-09-29T06:56:48;2.60;;;2.45;;
11986;SDS011;6053;51.382;6.768;2022-09-29T06:59:17;2.93;;;2.67;;
11986;SDS011;6053;51.382;6.768;2022-09-29T07:01:46;3.00;;;2.80;;
11986;SDS011;6053;51.382;6.768;2022-09-29T07:04:17;2.40;;;2.30;;
11986;SDS011;6053;51.382;6.768;2022-09-29T07:06:47;2.67;;;2.57;;
11986;SDS011;6053;51.382;6.768;2022-09-29T07:09:16;2.65;;;2.45;;
11986;SDS011;6053;51.382;6.768;2022-09-29T07:11:46;2.05;;;1.95;;
11986;SDS011;6053;51.382;6.768;2022-09-29T07:14:18;2.92;;;2.72;;
11986;SDS011;6053;51.382;6.768;2022-09-29T07:16:49;3.23;;;2.70;;
11986;SDS011;6053;51.382;6.768;2022-09-29T07:19:17;4.35;;;3.03;;
11986;SDS011;6053;51.382;6.768;2022-09-29T07:21:47;2.60;;;2.47;;
11986;SDS011;6053;51.382;6.768;2022-09-29T07:24:16;3.22;;;2.97;;
11986;SDS011;6053;51.382;6.768;2022-09-29T07:26:45;2.35;;;2.15;;
11986;SDS011;6053;51.382;6.768;2022-09-29T07:29:15;2.70;;;2.50;;
11986;SDS011;6053;51.382;6.768;2022-09-29T07:31:44;2.57;;;2.37;;
11986;SDS011;6053;51.382;6.768;2022-09-29T07:34:17;2.88;;;2.63;;
11986;SDS011;6053;51.382;6.768;2022-09-29T07:36:46;2.92;;;2.63;;
11986;SDS011;6053;51.382;6.768;2022-09-29T07:39:15;2.80;;;2.60;;
11986;SDS011;6053;51.382;6.768;2022-09-29T07:41:46;2.97;;;2.60;;
11986;SDS011;6053;51.382;6.768;2022-09-29T07:44:16;3.63;;;3.03;;
11986;SDS011;6053;51.382;6.768;2022-09-29T07:46:44;3.00;;;2.43;;
11986;SDS011;6053;51.382;6.768;2022-09-29T07:49:15;3.30;;;3.00;;
11986;SDS011;6053;51.382;6.768;2022-09-29T07:51:44;2.90;;;2.70;;
11986;SDS011;6053;51.382;6.768;2022-09-29T07:54:13;2.67;;;2.42;;
11986;SDS011;6053;51.382;6.768;2022-09-29T07:56:41;2.30;;;2.10;;
11986;SDS011;6053;51.382;6.768;2022-09-29T07:59:10;2.97;;;2.72;;
11986;SDS011;6053;51.382;6.768;2022-09-29T08:01:40;2.97;;;2.77;;
11986;SDS011;6053;51.382;6.768;2022-09-29T08:04:08;2.92;;;2.72;;
11986;SDS011;6053;51.382;6.768;2022-09-29T08:06:37;3.30;;;3.03;;
11986;SDS011;6053;51.382;6.768;2022-09-29T08:09:07;3.22;;;2.60;;
11986;SDS011;6053;51.382;6.768;2022-09-29T08:11:36;3.90;;;3.40;;
11986;SDS011;6053;51.382;6.768;2022-09-29T08:14:07;3.17;;;2.97;;
11986;SDS011;6053;51.382;6.768;2022-09-29T08:16:37;3.33;;;3.10;;
11986;SDS011;6053;51.382;6.768;2022-09-29T08:19:07;3.28;;;2.97;;
11986;SDS011;6053;51.382;6.768;2022-09-29T08:21:35;3.13;;;2.92;;
11986;SDS011;6053;51.382;6.768;2022-09-29T08:24:04;1.77;;;1.67;;
11986;SDS011;6053;51.382;6.768;2022-09-29T08:26:34;4.95;;;3.10;;
11986;SDS011;6053;51.382;6.768;2022-09-29T08:29:10;2.75;;;2.40;;
11986;SDS011;6053;51.382;6.768;2022-09-29T08:31:42;3.97;;;3.10;;
11986;SDS011;6053;51.382;6.768;2022-09-29T08:34:13;4.20;;;3.00;;
11986;SDS011;6053;51.382;6.768;2022-09-29T08:36:42;2.90;;;2.33;;
11986;SDS011;6053;51.382;6.768;2022-09-29T08:39:11;3.40;;;3.10;;
11986;SDS011;6053;51.382;6.768;2022-09-29T08:41:50;3.00;;;2.78;;
11986;SDS011;6053;51.382;6.768;2022-09-29T08:44:27;3.78;;;3.30;;
11986;SDS011;6053;51.382;6.768;2022-09-29T08:47:07;2.13;;;2.03;;
11986;SDS011;6053;51.382;6.768;2022-09-29T08:49:48;5.07;;;2.80;;
11986;SDS011;6053;51.382;6.768;2022-09-29T08:52:21;3.10;;;2.80;;
11986;SDS011;6053;51.382;6.768;2022-09-29T08:55:00;2.65;;;2.45;;
11986;SDS011;6053;51.382;6.768;2022-09-29T08:57:48;3.83;;;3.03;;
11986;SDS011;6053;51.382;6.768;2022-09-29T09:00:21;3.90;;;3.20;;
11986;SDS011;6053;51.382;6.768;2022-09-29T09:06:25;3.50;;;3.20;;
11986;SDS011;6053;51.382;6.768;2022-09-29T09:09:07;4.17;;;2.77;;
11986;SDS011;6053;51.382;6.768;2022-09-29T09:11:57;2.80;;;2.60;;
11986;SDS011;6053;51.382;6.768;2022-09-29T09:14:46;2.70;;;2.50;;
11986;SDS011;6053;51.382;6.768;2022-09-29T09:17:32;3.25;;;2.92;;
11986;SDS011;6053;51.382;6.768;2022-09-29T09:20:22;3.28;;;3.00;;
11986;SDS011;6053;51.382;6.768;2022-09-29T09:23:03;1.77;;;1.67;;
11986;SDS011;6053;51.382;6.768;2022-09-29T09:25:43;3.90;;;2.70;;
11986;SDS011;6053;51.382;6.768;2022-09-29T09:28:16;6.15;;;3.10;;
11986;SDS011;6053;51.382;6.768;2022-09-29T09:30:48;3.60;;;2.30;;
11986;SDS011;6053;51.382;6.768;2022-09-29T09:33:23;4.25;;;3.25;;
11986;SDS011;6053;51.382;6.768;2022-09-29T09:35:59;4.70;;;3.30;;
11986;SDS011;6053;51.382;6.768;2022-09-29T09:38:40;3.17;;;2.67;;
11986;SDS011;6053;51.382;6.768;2022-09-29T09:41:16;2.75;;;2.55;;
11986;SDS011;6053;51.382;6.768;2022-09-29T09:43:50;2.90;;;2.70;;
11986;SDS011;6053;51.382;6.768;2022-09-29T09:46:25;3.40;;;3.10;;
11986;SDS011;6053;51.382;6.768;2022-09-29T09:49:01;3.60;;;3.10;;
11986;SDS011;6053;51.382;6.768;2022-09-29T09:51:43;4.35;;;2.60;;
11986;SDS011;6053;51.382;6.768;2022-09-29T09:54:25;3.92;;;3.10;;
11986;SDS011;6053;51.382;6.768;2022-09-29T10:00:07;3.25;;;2.92;;
11986;SDS011;6053;51.382;6.768;2022-09-29T10:02:41;4.35;;;2.95;;
11986;SDS011;6053;51.382;6.768;2022-09-29T10:05:12;3.57;;;3.00;;
11986;SDS011;6053;51.382;6.768;2022-09-29T10:07:43;3.23;;;2.80;;
11986;SDS011;6053;51.382;6.768;2022-09-29T10:10:16;3.40;;;3.07;;
11986;SDS011;6053;51.382;6.768;2022-09-29T10:12:48;3.13;;;2.70;;
11986;SDS011;6053;51.382;6.768;2022-09-29T10:15:27;3.77;;;2.70;;
11986;SDS011;6053;51.382;6.768;2022-09-29T10:18:04;3.60;;;3.30;;
11986;SDS011;6053;51.382;6.768;2022-09-29T10:20:39;3.60;;;2.70;;
11986;SDS011;6053;51.382;6.768;2022-09-29T10:23:18;4.72;;;2.38;;
11986;SDS011;6053;51.382;6.768;2022-09-29T10:26:03;2.40;;;2.20;;
11986;SDS011;6053;51.382;6.768;2022-09-29T10:28:40;3.00;;;2.40;;
11986;SDS011;6053;51.382;6.768;2022-09-29T10:31:19;3.90;;;2.28;;
11986;SDS011;6053;51.382;6.768;2022-09-29T10:33:50;5.13;;;2.30;;
11986;SDS011;6053;51.382;6.768;2022-09-29T10:36:23;2.90;;;2.17;;
11986;SDS011;6053;51.382;6.768;2022-09-29T10:38:54;2.40;;;2.20;;
11986;SDS011;6053;51.382;6.768;2022-09-29T10:41:43;2.50;;;2.30;;
11986;SDS011;6053;51.382;6.768;2022-09-29T10:44:19;2.60;;;2.20;;
11986;SDS011;6053;51.382;6.768;2022-09-29T10:46:51;3.75;;;2.30;;
11986;SDS011;6053;51.382;6.768;2022-09-29T10:49:21;4.47;;;2.22;;
11986;SDS011;6053;51.382;6.768;2022-09-29T10:51:54;1.67;;;1.57;;
11986;SDS011;6053;51.382;6.768;2022-09-29T10:54:26;2.63;;;2.20;;
11986;SDS011;6053;51.382;6.768;2022-09-29T10:56:58;3.13;;;2.38;;
11986;SDS011;6053;51.382;6.768;2022-09-29T10:59:44;1.80;;;1.70;;
11986;SDS011;6053;51.382;6.768;2022-09-29T11:02:17;0.98;;;0.98;;
11986;SDS011;6053;51.382;6.768;2022-09-29T11:04:51;1.63;;;1.52;;
11986;SDS011;6053;51.382;6.768;2022-09-29T11:07:22;2.70;;;2.20;;
11986;SDS011;6053;51.382;6.768;2022-09-29T11:09:51;1.70;;;1.60;;
11986;SDS011;6053;51.382;6.768;2022-09-29T11:12:26;2.30;;;1.50;;
11986;SDS011;6053;51.382;6.768;2022-09-29T11:14:59;1.70;;;1.60;;
11986;SDS011;6053;51.382;6.768;2022-09-29T11:17:30;3.17;;;1.97;;
11986;SDS011;6053;51.382;6.768;2022-09-29T11:20:05;1.90;;;1.80;;
11986;SDS011;6053;51.382;6.768;2022-09-29T11:22:55;1.60;;;1.27;;
11986;SDS011;6053;51.382;6.768;2022-09-29T11:25:49;2.10;;;1.90;;
11986;SDS011;6053;51.382;6.768;2022-09-29T11:28:35;1.98;;;1.77;;
11986;SDS011;6053;51.382;6.768;2022-09-29T11:31:22;2.38;;;2.00;;
11986;SDS011;6053;51.382;6.768;2022-09-29T11:34:05;2.55;;;1.65;;
11986;SDS011;6053;51.382;6.768;2022-09-29T11:36:50;2.05;;;1.40;;
11986;SDS011;6053;51.382;6.768;2022-09-29T11:39:32;1.58;;;1.00;;
11986;SDS011;6053;51.382;6.768;2022-09-29T11:42:15;2.37;;;1.47;;
11986;SDS011;6053;51.382;6.768;2022-09-29T11:45:13;2.90;;;1.77;;
11986;SDS011;6053;51.382;6.768;2022-09-29T11:47:49;4.00;;;1.50;;
11986;SDS011;6053;51.382;6.768;2022-09-29T11:50:47;2.90;;;1.52;;
11986;SDS011;6053;51.382;6.768;2022-09-29T11:53:24;3.25;;;1.40;;
11986;SDS011;6053;51.382;6.768;2022-09-29T11:56:07;1.03;;;0.90;;
11986;SDS011;6053;51.382;6.768;2022-09-29T11:58:56;1.55;;;1.40;;
11986;SDS011;6053;51.382;6.768;2022-09-29T12:01:44;2.85;;;1.70;;
11986;SDS011;6053;51.382;6.768;2022-09-29T12:04:30;3.72;;;1.50;;
11986;SDS011;6053;51.382;6.768;2022-09-29T12:07:16;2.85;;;1.38;;
11986;SDS011;6053;51.382;6.768;2022-09-29T12:09:57;1.77;;;1.67;;
11986;SDS011;6053;51.382;6.768;2022-09-29T12:12:40;1.67;;;1.08;;
11986;SDS011;6053;51.382;6.768;2022-09-29T12:15:17;1.55;;;1.25;;
11986;SDS011;6053;51.382;6.768;2022-09-29T12:18:00;0.70;;;0.70;;
11986;SDS011;6053;51.382;6.768;2022-09-29T12:20:36;0.90;;;0.90;;
11986;SDS011;6053;51.382;6.768;2022-09-29T12:23:09;1.20;;;1.20;;
11986;SDS011;6053;51.382;6.768;2022-09-29T12:25:42;2.00;;;1.10;;
11986;SDS011;6053;51.382;6.768;2022-09-29T12:28:19;3.05;;;1.25;;
11986;SDS011;6053;51.382;6.768;2022-09-29T12:30:54;1.52;;;1.38;;
11986;SDS011;6053;51.382;6.768;2022-09-29T12:33:30;2.40;;;1.40;;
11986;SDS011;6053;51.382;6.768;2022-09-29T12:36:11;2.20;;;1.20;;
11986;SDS011;6053;51.382;6.768;2022-09-29T12:39:18;1.38;;;1.20;;
11986;SDS011;6053;51.382;6.768;2022-09-29T12:41:56;1.30;;;1.20;;
11986;SDS011;6053;51.382;6.768;2022-09-29T12:44:35;1.50;;;1.40;;
11986;SDS011;6053;51.382;6.768;2022-09-29T12:47:11;1.45;;;1.35;;
11986;SDS011;6053;51.382;6.768;2022-09-29T12:49:54;1.35;;;1.20;;
11986;SDS011;6053;51.382;6.768;2022-09-29T12:52:30;2.20;;;1.23;;
11986;SDS011;6053;51.382;6.768;2022-09-29T12:55:06;1.10;;;1.00;;
11986;SDS011;6053;51.382;6.768;2022-09-29T12:57:44;2.30;;;1.30;;
11986;SDS011;6053;51.382;6.768;2022-09-29T13:00:15;0.75;;;0.75;;
11986;SDS011;6053;51.382;6.768;2022-09-29T13:02:50;1.50;;;1.15;;
11986;SDS011;6053;51.382;6.768;2022-09-29T13:05:44;1.30;;;1.20;;
11986;SDS011;6053;51.382;6.768;2022-09-29T13:08:34;1.30;;;1.10;;
11986;SDS011;6053;51.382;6.768;2022-09-29T13:11:32;1.10;;;1.10;;
11986;SDS011;6053;51.382;6.768;2022-09-29T13:14:21;1.25;;;1.15;;
11986;SDS011;6053;51.382;6.768;2022-09-29T13:17:08;0.90;;;0.90;;
11986;SDS011;6053;51.382;6.768;2022-09-29T13:19:49;2.15;;;1.00;;
11986;SDS011;6053;51.382;6.768;2022-09-29T13:22:39;0.70;;;0.70;;
11986;SDS011;6053;51.382;6.768;2022-09-29T13:25:20;1.87;;;1.13;;
11986;SDS011;6053;51.382;6.768;2022-09-29T13:27:54;1.20;;;1.00;;
11986;SDS011;6053;51.382;6.768;2022-09-29T13:30:24;0.85;;;0.77;;
11986;SDS011;6053;51.382;6.768;2022-09-29T13:32:57;1.83;;;1.20;;
11986;SDS011;6053;51.382;6.768;2022-09-29T13:35:29;1.00;;;1.00;;
11986;SDS011;6053;51.382;6.768;2022-09-29T13:38:13;1.35;;;0.95;;
11986;SDS011;6053;51.382;6.768;2022-09-29T13:46:50;0.65;;;0.65;;
11986;SDS011;6053;51.382;6.768;2022-09-29T13:49:24;0.60;;;0.60;;
11986;SDS011;6053;51.382;6.768;2022-09-29T13:51:56;1.10;;;0.67;;
11986;SDS011;6053;51.382;6.768;2022-09-29T13:54:31;0.63;;;0.63;;
11986;SDS011;6053;51.382;6.768;2022-09-29T14:05:53;1.25;;;1.05;;
11986;SDS011;6053;51.382;6.768;2022-09-29T14:08:50;0.70;;;0.70;;
11986;SDS011;6053;51.382;6.768;2022-09-29T14:11:26;0.70;;;0.70;;
11986;SDS011;6053;51.382;6.768;2022-09-29T14:14:01;0.70;;;0.70;;
11986;SDS011;6053;51.382;6.768;2022-09-29T14:16:35;1.17;;;1.00;;
11986;SDS011;6053;51.382;6.768;2022-09-29T14:19:36;1.10;;;0.90;;
11986;SDS011;6053;51.382;6.768;2022-09-29T14:25:47;0.67;;;0.67;;
11986;SDS011;6053;51.382;6.768;2022-09-29T14:28:36;1.10;;;0.93;;
11986;SDS011;6053;51.382;6.768;2022-09-29T14:31:19;2.15;;;1.02;;
11986;SDS011;6053;51.382;6.768;2022-09-29T14:33:49;0.70;;;0.70;;
11986;SDS011;6053;51.382;6.768;2022-09-29T14:36:20;1.65;;;1.20;;
11986;SDS011;6053;51.382;6.768;2022-09-29T14:38:52;1.10;;;1.00;;
11986;SDS011;6053;51.382;6.768;2022-09-29T14:41:43;0.70;;;0.70;;
11986;SDS011;6053;51.382;6.768;2022-09-29T14:44:17;0.90;;;0.90;;
11986;SDS011;6053;51.382;6.768;2022-09-29T14:46:55;1.17;;;0.90;;
11986;SDS011;6053;51.382;6.768;2022-09-29T14:50:17;1.07;;;0.97;;
11986;SDS011;6053;51.382;6.768;2022-09-29T14:53:31;1.40;;;0.90;;
11986;SDS011;6053;51.382;6.768;2022-09-29T14:56:24;0.65;;;0.65;;
11986;SDS011;6053;51.382;6.768;2022-09-29T14:59:14;1.10;;;0.80;;
11986;SDS011;6053;51.382;6.768;2022-09-29T15:02:00;0.73;;;0.60;;
11986;SDS011;6053;51.382;6.768;2022-09-29T15:04:47;0.60;;;0.60;;
11986;SDS011;6053;51.382;6.768;2022-09-29T15:07:16;0.60;;;0.60;;
11986;SDS011;6053;51.382;6.768;2022-09-29T15:09:48;0.68;;;0.68;;
11986;SDS011;6053;51.382;6.768;2022-09-29T15:12:21;0.80;;;0.77;;
11986;SDS011;6053;51.382;6.768;2022-09-29T15:14:54;0.90;;;0.80;;
11986;SDS011;6053;51.382;6.768;2022-09-29T15:17:26;2.10;;;1.00;;
11986;SDS011;6053;51.382;6.768;2022-09-29T15:20:15;1.87;;;0.87;;
11986;SDS011;6053;51.382;6.768;2022-09-29T15:22:56;1.45;;;1.00;;
11986;SDS011;6053;51.382;6.768;2022-09-29T15:25:37;0.80;;;0.80;;
11986;SDS011;6053;51.382;6.768;2022-09-29T15:28:10;0.80;;;0.80;;
11986;SDS011;6053;51.382;6.768;2022-09-29T15:30:43;0.80;;;0.80;;
11986;SDS011;6053;51.382;6.768;2022-09-29T15:33:17;0.73;;;0.73;;
11986;SDS011;6053;51.382;6.768;2022-09-29T15:35:49;0.50;;;0.50;;
11986;SDS011;6053;51.382;6.768;2022-09-29T15:38:31;0.63;;;0.63;;
11986;SDS011;6053;51.382;6.768;2022-09-29T15:41:04;0.50;;;0.50;;
11986;SDS011;6053;51.382;6.768;2022-09-29T15:43:56;0.53;;;0.53;;
11986;SDS011;6053;51.382;6.768;2022-09-29T15:46:34;0.45;;;0.45;;
11986;SDS011;6053;51.382;6.768;2022-09-29T15:49:11;0.50;;;0.50;;
11986;SDS011;6053;51.382;6.768;2022-09-29T15:51:44;0.60;;;0.60;;
11986;SDS011;6053;51.382;6.768;2022-09-29T15:54:23;0.55;;;0.55;;
11986;SDS011;6053;51.382;6.768;2022-09-29T15:56:54;0.52;;;0.52;;
11986;SDS011;6053;51.382;6.768;2022-09-29T15:59:41;0.50;;;0.50;;
11986;SDS011;6053;51.382;6.768;2022-09-29T16:02:19;0.50;;;0.50;;
11986;SDS011;6053;51.382;6.768;2022-09-29T16:04:53;0.50;;;0.50;;
11986;SDS011;6053;51.382;6.768;2022-09-29T16:07:24;0.43;;;0.43;;
11986;SDS011;6053;51.382;6.768;2022-09-29T16:09:59;0.57;;;0.50;;
11986;SDS011;6053;51.382;6.768;2022-09-29T16:12:36;3.28;;;0.85;;